Time;durP1;ratioP1;P1;durP2;ratioP2;P2;SDS_P1;SDS_P2;PMS_P1;PMS_P2;Temp;Humidity;BMP_temperature;BMP_pressure;BME280_temperature;BME280_humidity;BME280_pressure;Samples;Min_cycle;Max_cycle;Signal;HPM_P1;HPM_P2
2023/01/16 00:00:37;;;;;;;1.17;1.17;;;;;;;23.67;40.22;98680.98;1839599;76;28379;-43
2023/01/16 00:03:25;;;;;;;1.27;1.20;;;;;;;23.68;40.19;98669.48;1826265;77;28249;-44
2023/01/16 00:06:14;;;;;;;1.10;1.10;;;;;;;23.68;40.29;98664.00;1847073;76;28193;-45
2023/01/16 00:09:03;;;;;;;1.00;1.00;;;;;;;23.67;40.36;98662.33;1838022;76;28286;-58
2023/01/16 00:11:52;;;;;;;1.35;1.30;;;;;;;23.69;40.30;98648.64;1827245;76;28398;-55
2023/01/16 00:14:40;;;;;;;1.10;1.10;;;;;;;23.67;40.47;98640.39;1828484;76;28456;-54
2023/01/16 00:17:28;;;;;;;1.20;1.10;;;;;;;23.65;40.47;98632.45;1836085;77;28280;-59
2023/01/16 00:20:17;;;;;;;1.07;1.07;;;;;;;23.72;40.42;98625.36;1826958;77;28366;-60
2023/01/16 00:23:06;;;;;;;1.45;1.32;;;;;;;23.70;40.49;98626.17;1829309;77;32208;-60
2023/01/16 00:25:54;;;;;;;1.00;1.00;;;;;;;23.76;40.38;98625.94;1861715;76;30264;-57
2023/01/16 00:28:43;;;;;;;2.00;1.27;;;;;;;23.79;40.35;98621.31;1860570;76;28395;-57
2023/01/16 00:31:31;;;;;;;1.02;1.02;;;;;;;23.75;40.33;98605.65;1868368;76;28177;-59
2023/01/16 00:34:19;;;;;;;1.42;1.32;;;;;;;23.74;40.43;98593.02;1856012;76;38521;-57
2023/01/16 00:37:08;;;;;;;1.30;1.20;;;;;;;23.79;40.30;98591.68;1858740;76;28298;-58
2023/01/16 00:40:03;;;;;;;1.30;1.20;;;;;;;23.75;40.39;98588.66;1869135;75;28226;-59
2023/01/16 00:42:52;;;;;;;1.20;1.20;;;;;;;23.76;40.40;98568.89;1853173;77;28304;-58
2023/01/16 00:45:40;;;;;;;1.20;1.20;;;;;;;23.78;40.43;98566.17;1862204;74;28181;-57
2023/01/16 00:48:29;;;;;;;1.30;1.20;;;;;;;23.76;40.36;98554.64;1854978;77;28302;-57
2023/01/16 00:51:17;;;;;;;1.92;1.45;;;;;;;23.73;40.39;98550.25;1874595;76;28098;-58
2023/01/16 00:54:06;;;;;;;1.12;1.12;;;;;;;23.72;40.43;98549.41;1876881;75;28229;-57
2023/01/16 00:56:54;;;;;;;1.27;1.17;;;;;;;23.72;40.46;98540.36;1847900;76;28228;-58
2023/01/16 00:59:42;;;;;;;3.60;1.30;;;;;;;23.75;40.55;98536.55;1838080;74;32332;-57
2023/01/16 01:02:31;;;;;;;1.17;1.10;;;;;;;23.67;40.40;98515.64;1858454;76;28301;-55
2023/01/16 01:05:25;;;;;;;2.00;1.37;;;;;;;23.74;40.42;98520.34;1869183;75;28222;-58
2023/01/16 01:08:13;;;;;;;1.10;1.10;;;;;;;23.73;40.45;98515.97;1865004;76;28273;-59
2023/01/16 01:11:13;;;;;;;1.02;1.02;;;;;;;23.73;40.35;98519.55;1859380;76;28349;-57
2023/01/16 01:14:02;;;;;;;1.47;1.37;;;;;;;23.71;40.43;98515.41;1843354;76;28243;-58
2023/01/16 01:16:58;;;;;;;1.98;1.20;;;;;;;23.71;40.42;98501.70;1849006;76;28346;-58
2023/01/16 01:19:48;;;;;;;1.20;1.20;;;;;;;23.73;40.41;98494.03;1858002;76;28224;-57
2023/01/16 01:22:37;;;;;;;1.30;1.20;;;;;;;23.72;40.43;98501.97;1837474;77;28235;-57
2023/01/16 01:25:25;;;;;;;1.10;1.10;;;;;;;23.70;40.55;98490.45;1864656;75;28177;-56
2023/01/16 01:28:14;;;;;;;1.30;1.20;;;;;;;23.69;40.59;98490.15;1858644;75;28251;-58
2023/01/16 01:31:04;;;;;;;1.15;1.10;;;;;;;23.67;40.52;98484.95;1874992;75;28102;-57
2023/01/16 01:33:53;;;;;;;1.12;1.12;;;;;;;23.67;40.51;98482.20;1867948;75;28336;-58
2023/01/16 01:36:41;;;;;;;1.50;1.40;;;;;;;23.68;40.59;98478.92;1871060;75;28330;-58
2023/01/16 01:39:30;;;;;;;1.12;1.10;;;;;;;23.64;40.65;98469.59;1881405;74;28208;-58
2023/01/16 01:45:30;;;;;;;1.30;1.30;;;;;;;23.66;40.57;98458.63;1866094;75;28212;-58
2023/01/16 01:48:27;;;;;;;1.10;1.10;;;;;;;23.62;40.62;98464.34;1884942;74;32077;-59
2023/01/16 01:51:18;;;;;;;1.30;1.20;;;;;;;23.63;40.64;98463.27;1889952;75;28196;-60
2023/01/16 01:54:10;;;;;;;1.10;1.10;;;;;;;23.65;40.67;98458.88;1857071;76;28240;-57
2023/01/16 01:57:01;;;;;;;1.15;1.10;;;;;;;23.65;40.70;98444.63;1850744;76;28228;-59
2023/01/16 02:00:01;;;;;;;1.23;1.13;;;;;;;23.61;40.73;98429.81;1846755;74;28085;-58
2023/01/16 02:02:58;;;;;;;1.20;1.20;;;;;;;23.57;40.66;98414.17;1872087;74;28305;-59
2023/01/16 02:05:52;;;;;;;1.12;1.00;;;;;;;23.59;40.63;98399.65;1867565;75;28220;-58
2023/01/16 02:08:44;;;;;;;1.35;1.25;;;;;;;23.56;40.80;98398.80;1868183;76;28207;-58
2023/01/16 02:11:36;;;;;;;1.60;1.30;;;;;;;23.54;40.75;98398.25;1870876;76;28073;-58
2023/01/16 02:14:27;;;;;;;1.35;1.27;;;;;;;23.54;40.73;98389.48;1834887;77;28305;-59
2023/01/16 02:20:27;;;;;;;1.20;1.20;;;;;;;23.58;40.70;98387.85;1864227;76;28366;-60
2023/01/16 02:23:27;;;;;;;1.20;1.10;;;;;;;23.51;40.73;98379.59;1856382;76;28187;-55
2023/01/16 02:26:31;;;;;;;2.05;1.20;;;;;;;23.52;40.70;98370.28;1855750;76;28313;-58
2023/01/16 02:29:43;;;;;;;1.52;1.20;;;;;;;23.53;40.84;98347.25;1858624;76;28788;-60
2023/01/16 02:32:46;;;;;;;1.33;1.23;;;;;;;23.51;40.76;98335.73;1868163;75;28094;-60
2023/01/16 02:35:37;;;;;;;1.10;1.10;;;;;;;23.49;40.84;98321.48;1862805;76;28274;-57
2023/01/16 02:38:46;;;;;;;1.40;1.30;;;;;;;23.49;40.73;98318.73;1879259;75;33088;-58
2023/01/16 02:41:43;;;;;;;1.07;1.07;;;;;;;23.50;40.79;98312.17;1867442;75;28324;-57
2023/01/16 02:44:44;;;;;;;1.37;1.30;;;;;;;23.48;40.84;98293.23;1837676;76;28369;-56
2023/01/16 02:47:38;;;;;;;1.20;1.20;;;;;;;23.50;40.83;98291.62;1866451;74;28253;-57
2023/01/16 02:50:32;;;;;;;1.40;1.30;;;;;;;23.48;40.81;98288.33;1840799;76;28261;-61
2023/01/16 02:53:30;;;;;;;1.10;1.10;;;;;;;23.49;40.79;98283.10;1877789;75;28038;-58
2023/01/16 02:56:21;;;;;;;1.40;1.10;;;;;;;23.44;40.78;98261.98;1868099;76;28242;-57
2023/01/16 02:59:11;;;;;;;1.20;1.20;;;;;;;23.44;40.87;98240.06;1854734;75;28278;-58
2023/01/16 03:01:59;;;;;;;1.10;1.10;;;;;;;23.45;40.80;98234.04;1854268;75;28160;-57
2023/01/16 03:04:50;;;;;;;1.10;1.10;;;;;;;23.46;40.88;98234.30;1864137;76;28271;-56
2023/01/16 03:08:03;;;;;;;1.35;1.25;;;;;;;23.46;40.77;98228.81;1876524;75;28093;-59
2023/01/16 03:11:11;;;;;;;1.10;1.10;;;;;;;23.46;40.70;98209.63;1849163;74;28259;-59
2023/01/16 03:14:18;;;;;;;1.50;1.40;;;;;;;23.41;40.80;98209.08;1859143;75;28391;-58
2023/01/16 03:17:18;;;;;;;1.37;1.30;;;;;;;23.39;40.88;98200.30;1866337;76;28388;-58
2023/01/16 03:20:18;;;;;;;1.20;1.10;;;;;;;23.43;40.79;98181.42;1858333;76;28372;-57
2023/01/16 03:23:15;;;;;;;1.45;1.25;;;;;;;23.40;40.82;98160.86;1870026;75;28300;-58
2023/01/16 03:26:06;;;;;;;1.20;1.20;;;;;;;23.38;40.77;98152.89;1867545;75;28104;-57
2023/01/16 03:29:17;;;;;;;1.47;1.30;;;;;;;23.38;40.82;98143.88;1874667;75;28246;-58
2023/01/16 03:32:11;;;;;;;1.45;1.35;;;;;;;23.41;40.67;98134.29;1872598;75;28643;-59
2023/01/16 03:35:05;;;;;;;1.50;1.40;;;;;;;23.40;40.75;98121.66;1839021;76;28238;-57
2023/01/16 03:37:56;;;;;;;1.30;1.30;;;;;;;23.42;40.73;98109.88;1870544;74;28141;-59
2023/01/16 03:40:48;;;;;;;1.45;1.35;;;;;;;23.42;40.64;98103.03;1818862;76;28529;-58
2023/01/16 03:43:39;;;;;;;1.35;1.30;;;;;;;23.43;40.41;98089.61;1876334;75;28241;-57
2023/01/16 03:46:31;;;;;;;1.30;1.30;;;;;;;23.45;40.56;98080.56;1856306;76;28309;-59
2023/01/16 03:49:22;;;;;;;1.27;1.27;;;;;;;23.38;40.54;98069.31;1856342;77;28182;-54
2023/01/16 03:52:14;;;;;;;1.40;1.35;;;;;;;23.46;40.42;98049.30;1840871;76;28279;-60
2023/01/16 03:55:20;;;;;;;1.27;1.17;;;;;;;23.41;40.48;98046.02;1862055;76;28207;-57
2023/01/16 03:58:15;;;;;;;1.40;1.37;;;;;;;23.41;40.54;98041.91;1884375;75;28689;-59
2023/01/16 04:01:21;;;;;;;1.30;1.30;;;;;;;23.32;40.50;98032.03;1848655;77;28067;-58
2023/01/16 04:04:27;;;;;;;1.27;1.25;;;;;;;23.35;40.53;98019.19;1850160;76;28257;-58
2023/01/16 04:07:33;;;;;;;1.60;1.50;;;;;;;23.31;40.63;98009.82;1790007;79;28910;-60
2023/01/16 04:10:24;;;;;;;1.30;1.30;;;;;;;23.30;40.57;97996.41;1779367;78;28376;-59
2023/01/16 04:13:18;;;;;;;1.37;1.37;;;;;;;23.29;40.54;97995.58;1813393;78;28285;-61
2023/01/16 04:16:09;;;;;;;1.20;1.20;;;;;;;23.27;40.59;97990.92;1810387;78;28678;-59
2023/01/16 04:19:03;;;;;;;1.50;1.40;;;;;;;23.21;40.63;97976.97;1815492;78;28298;-61
2023/01/16 04:21:52;;;;;;;1.37;1.30;;;;;;;23.25;40.55;97966.27;1817508;78;28359;-57
2023/01/16 04:24:40;;;;;;;1.47;1.37;;;;;;;23.25;40.57;97969.84;1809531;78;28359;-59
2023/01/16 04:27:29;;;;;;;1.20;1.20;;;;;;;23.23;40.56;97959.70;1806921;77;28533;-57
2023/01/16 04:30:19;;;;;;;1.30;1.30;;;;;;;23.30;40.50;97954.77;1819753;77;28505;-58
2023/01/16 04:33:08;;;;;;;1.22;1.22;;;;;;;23.29;40.29;97921.61;1804541;78;28338;-55
2023/01/16 04:35:56;;;;;;;1.30;1.20;;;;;;;23.30;40.32;97915.59;1817142;78;28361;-58
2023/01/16 04:38:45;;;;;;;1.32;1.25;;;;;;;23.26;40.36;97898.06;1806809;78;28417;-56
2023/01/16 04:41:36;;;;;;;1.30;1.30;;;;;;;23.26;40.41;97878.34;1812208;76;28302;-58
2023/01/16 04:44:25;;;;;;;1.27;1.27;;;;;;;23.22;40.36;97858.06;1816906;78;28298;-58
2023/01/16 04:47:14;;;;;;;1.62;1.52;;;;;;;23.25;40.14;97847.92;1778146;78;28372;-57
2023/01/16 04:50:02;;;;;;;1.37;1.27;;;;;;;23.22;40.37;97838.89;1824255;77;28381;-58
2023/01/16 04:52:51;;;;;;;1.50;1.40;;;;;;;23.20;40.53;97839.72;1760461;80;28310;-57
2023/01/16 04:55:39;;;;;;;1.15;1.15;;;;;;;23.17;40.26;97828.52;1778622;79;28427;-59
2023/01/16 04:58:27;;;;;;;1.20;1.20;;;;;;;23.15;40.31;97805.48;1782815;79;28534;-56
2023/01/16 05:01:17;;;;;;;1.50;1.40;;;;;;;23.18;40.08;97803.57;1798962;78;28254;-58
2023/01/16 05:04:07;;;;;;;1.20;1.20;;;;;;;23.16;40.21;97790.70;1784850;79;28264;-57
2023/01/16 05:06:55;;;;;;;1.50;1.50;;;;;;;23.15;40.26;97775.36;1857583;76;28103;-57
2023/01/16 05:09:44;;;;;;;1.27;1.27;;;;;;;23.11;40.30;97771.55;1853868;75;34126;-58
2023/01/16 05:12:32;;;;;;;1.27;1.20;;;;;;;23.11;40.19;97770.72;1867011;75;28254;-58
2023/01/16 05:15:21;;;;;;;1.30;1.30;;;;;;;23.12;40.09;97764.16;1862613;75;28207;-58
2023/01/16 05:18:09;;;;;;;1.07;1.07;;;;;;;23.09;40.15;97735.41;1866000;75;28680;-59
2023/01/16 05:20:59;;;;;;;1.22;1.22;;;;;;;23.09;40.32;97729.93;1855443;76;28341;-57
2023/01/16 05:23:47;;;;;;;1.30;1.30;;;;;;;23.08;40.25;97721.43;1863008;76;28220;-58
2023/01/16 05:26:36;;;;;;;1.10;1.10;;;;;;;23.12;40.11;97706.09;1849938;76;38558;-58
2023/01/16 05:29:24;;;;;;;1.30;1.20;;;;;;;23.07;40.22;97702.00;1845274;74;28389;-58
2023/01/16 05:32:12;;;;;;;1.50;1.40;;;;;;;23.08;40.27;97669.97;1857703;76;28346;-59
2023/01/16 05:35:02;;;;;;;1.10;1.10;;;;;;;23.03;40.33;97663.97;1867308;74;28275;-59
2023/01/16 05:37:50;;;;;;;1.17;1.17;;;;;;;23.05;40.47;97667.24;1872589;74;28209;-58
2023/01/16 05:40:39;;;;;;;1.20;1.20;;;;;;;22.99;40.35;97645.07;1850068;76;28269;-57
2023/01/16 05:43:27;;;;;;;1.25;1.20;;;;;;;23.04;40.37;97659.28;1857601;76;28358;-57
2023/01/16 05:46:17;;;;;;;1.10;1.10;;;;;;;23.01;40.54;97660.66;1849081;74;28238;-57
2023/01/16 05:49:12;;;;;;;1.05;1.05;;;;;;;23.02;40.53;97651.91;1863604;75;28245;-58
2023/01/16 05:52:00;;;;;;;1.20;1.20;;;;;;;22.98;40.57;97649.47;1856917;75;28209;-58
2023/01/16 05:54:49;;;;;;;1.00;1.00;;;;;;;22.99;40.63;97662.05;1859290;76;28280;-58
2023/01/16 05:57:37;;;;;;;1.20;1.20;;;;;;;22.97;40.69;97659.59;1862348;76;28355;-57
2023/01/16 06:00:26;;;;;;;1.50;1.10;;;;;;;22.98;40.60;97647.56;1853754;76;28173;-59
2023/01/16 06:03:15;;;;;;;1.10;1.10;;;;;;;22.98;40.59;97638.52;1862682;75;28251;-58
2023/01/16 06:06:04;;;;;;;1.00;1.00;;;;;;;22.97;40.59;97634.12;1849772;76;28453;-57
2023/01/16 06:08:52;;;;;;;1.30;1.30;;;;;;;22.94;40.71;97620.45;1858678;76;28317;-58
2023/01/16 06:11:41;;;;;;;1.02;1.02;;;;;;;22.94;40.68;97631.40;1848087;76;28207;-58
2023/01/16 06:14:30;;;;;;;1.07;1.07;;;;;;;22.97;40.65;97630.84;1870946;75;28381;-59
2023/01/16 06:17:19;;;;;;;1.10;1.10;;;;;;;22.97;40.68;97622.63;1861945;75;28800;-58
2023/01/16 06:20:09;;;;;;;1.12;0.95;;;;;;;22.96;40.72;97631.97;1851639;76;28275;-59
2023/01/16 06:22:57;;;;;;;1.07;1.07;;;;;;;22.93;40.71;97614.72;1878140;75;28210;-58
2023/01/16 06:25:50;;;;;;;1.15;1.15;;;;;;;22.89;40.77;97610.92;1877623;75;28188;-58
2023/01/16 06:28:39;;;;;;;1.32;1.25;;;;;;;22.91;40.82;97618.30;1855178;76;28287;-58
2023/01/16 06:31:28;;;;;;;1.32;1.17;;;;;;;22.81;40.58;97586.86;1823030;76;28262;-56
2023/01/16 06:34:17;;;;;;;1.30;1.25;;;;;;;22.93;40.64;97624.30;1839501;76;31992;-54
2023/01/16 06:37:05;;;;;;;1.42;1.42;;;;;;;22.91;40.65;97605.98;1834082;76;28198;-57
2023/01/16 06:39:56;;;;;;;1.70;1.60;;;;;;;22.90;38.05;97615.81;1835213;76;28186;-58
2023/01/16 06:42:44;;;;;;;1.67;1.57;;;;;;;22.91;37.63;97608.72;1822935;76;28238;-59
2023/01/16 06:45:32;;;;;;;1.70;1.60;;;;;;;23.00;37.77;97608.93;1802855;79;28196;-58
2023/01/16 06:48:22;;;;;;;2.37;2.17;;;;;;;23.05;38.01;97622.05;1852379;76;28267;-58
2023/01/16 06:51:17;;;;;;;2.20;2.10;;;;;;;23.02;37.97;97586.19;1840402;76;28315;-57
2023/01/16 06:54:05;;;;;;;2.27;2.15;;;;;;;23.02;38.17;97605.36;1834932;76;28392;-57
2023/01/16 06:56:54;;;;;;;1.70;1.60;;;;;;;23.02;38.11;97614.94;1822213;76;28262;-57
2023/01/16 06:59:42;;;;;;;2.30;2.10;;;;;;;23.00;37.98;97606.19;1840744;76;28278;-58
2023/01/16 07:02:30;;;;;;;2.42;2.22;;;;;;;23.01;38.03;97601.79;1831098;76;28360;-60
2023/01/16 07:05:19;;;;;;;3.27;2.58;;;;;;;22.98;38.17;97605.12;1835138;76;28322;-54
2023/01/16 07:08:07;;;;;;;4.67;2.62;;;;;;;23.01;38.25;97607.27;1835438;76;28407;-52
2023/01/16 07:10:57;;;;;;;3.87;3.12;;;;;;;23.01;38.36;97609.21;1837470;76;28064;-52
2023/01/16 07:13:45;;;;;;;3.37;2.95;;;;;;;23.03;38.44;97611.11;1848068;76;28091;-50
2023/01/16 07:22:46;;;;;;;3.17;2.87;;;;;;;23.02;38.76;97592.48;1835703;76;28182;-47
2023/01/16 07:25:36;;;;;;;3.10;2.77;;;;;;;22.97;38.94;97590.31;1838436;76;28269;-50
2023/01/16 07:28:25;;;;;;;3.92;2.80;;;;;;;22.98;39.08;97583.21;1831623;76;28285;-57
2023/01/16 07:31:14;;;;;;;3.08;2.87;;;;;;;22.97;39.38;97591.14;1818854;76;28226;-59
2023/01/16 07:34:02;;;;;;;3.47;3.17;;;;;;;22.95;39.61;97592.52;1861244;76;28310;-51
2023/01/16 07:36:51;;;;;;;2.98;2.77;;;;;;;22.97;39.79;97593.88;1836342;77;28180;-56
2023/01/16 07:39:39;;;;;;;3.30;3.00;;;;;;;22.94;40.12;97586.80;1849073;77;28238;-50
2023/01/16 07:42:27;;;;;;;3.90;3.00;;;;;;;22.97;40.23;97594.42;1852620;76;28262;-49
2023/01/16 07:45:16;;;;;;;2.70;2.50;;;;;;;22.99;40.35;97591.67;1857352;76;28294;-49
2023/01/16 07:48:05;;;;;;;3.15;2.85;;;;;;;23.00;40.34;97591.13;1891912;74;28294;-47
2023/01/16 07:50:56;;;;;;;3.30;2.95;;;;;;;23.01;40.44;97607.27;1859880;75;28334;-51
2023/01/16 07:53:44;;;;;;;4.78;3.02;;;;;;;23.05;40.44;97587.00;1839663;77;28262;-49
2023/01/16 07:56:32;;;;;;;4.17;2.80;;;;;;;23.08;40.50;97581.76;1838900;77;28283;-51
2023/01/16 07:59:20;;;;;;;3.87;2.98;;;;;;;23.06;40.63;97585.33;1870067;75;28352;-50
2023/01/16 08:02:11;;;;;;;3.20;2.70;;;;;;;23.06;40.63;97563.42;1857900;76;28261;-50
2023/01/16 08:04:59;;;;;;;3.08;2.77;;;;;;;23.06;40.58;97583.97;1857535;76;30301;-52
2023/01/16 08:07:49;;;;;;;3.92;2.95;;;;;;;23.08;40.69;97577.65;1869932;75;28270;-52
2023/01/16 08:10:38;;;;;;;2.63;2.43;;;;;;;23.06;40.71;97568.91;1853346;75;28193;-49
2023/01/16 08:13:40;;;;;;;3.22;2.90;;;;;;;23.06;40.76;97557.95;1854928;76;28434;-48
2023/01/16 08:16:17;;;;;;;2.83;2.62;;;;;;;23.06;40.78;97556.58;1847160;76;28274;-48
2023/01/16 08:19:05;;;;;;;3.55;2.70;;;;;;;23.04;40.83;97542.36;1848921;74;28274;-48
2023/01/16 08:21:53;;;;;;;2.98;2.72;;;;;;;23.03;40.85;97548.13;1833806;77;28287;-48
2023/01/16 08:24:42;;;;;;;3.05;2.70;;;;;;;23.04;40.82;97541.53;1828506;77;28329;-51
2023/01/16 08:27:30;;;;;;;2.50;2.30;;;;;;;23.06;40.91;97529.73;1886857;74;28324;-49
2023/01/16 08:30:20;;;;;;;2.80;2.52;;;;;;;23.05;40.79;97524.84;1853287;76;28270;-50
2023/01/16 08:33:09;;;;;;;3.00;2.60;;;;;;;23.04;40.83;97521.82;1849167;74;28339;-48
2023/01/16 08:35:59;;;;;;;2.93;2.60;;;;;;;23.03;40.83;97509.25;1818270;77;28260;-47
2023/01/16 08:38:49;;;;;;;2.83;2.62;;;;;;;23.03;40.82;97499.66;1838768;77;28308;-51
2023/01/16 08:53:56;;;;;;;2.35;2.15;;;;;;;22.97;40.91;97487.09;1816217;77;28505;-50
2023/01/16 08:56:44;;;;;;;2.33;2.22;;;;;;;22.95;41.01;97486.56;1839005;77;28567;-48
2023/01/16 08:59:33;;;;;;;2.70;2.50;;;;;;;22.97;41.03;97472.03;1838306;76;28265;-50
2023/01/16 09:02:22;;;;;;;2.33;2.20;;;;;;;23.00;40.92;97487.08;1828021;77;28381;-48
2023/01/16 09:05:12;;;;;;;2.53;2.33;;;;;;;23.01;40.90;97468.19;1809292;79;28408;-51
2023/01/16 09:08:07;;;;;;;2.20;2.10;;;;;;;23.01;40.91;97461.34;1831410;76;28430;-54
2023/01/16 09:14:07;;;;;;;2.85;2.20;;;;;;;22.99;40.90;97442.45;1839733;77;28310;-48
2023/01/16 09:16:56;;;;;;;2.75;2.15;;;;;;;22.93;40.99;97438.13;1840065;77;28176;-48
2023/01/16 09:19:44;;;;;;;2.75;2.25;;;;;;;22.94;40.98;97456.17;1841119;77;28274;-49
2023/01/16 09:22:33;;;;;;;2.40;2.20;;;;;;;22.98;40.91;97440.83;1840211;77;28263;-52
2023/01/16 09:25:29;;;;;;;2.25;2.00;;;;;;;22.98;40.88;97447.67;1817866;77;28342;-50
2023/01/16 09:28:17;;;;;;;3.17;2.33;;;;;;;22.96;40.89;97437.56;1820897;77;28405;-52
2023/01/16 09:31:06;;;;;;;2.30;2.10;;;;;;;22.97;40.84;97447.39;1823858;77;28391;-52
2023/01/16 09:33:55;;;;;;;2.17;2.08;;;;;;;22.97;40.83;97447.39;1840327;76;28478;-49
2023/01/16 09:36:43;;;;;;;2.35;2.10;;;;;;;22.98;40.82;97429.88;1843864;77;28286;-52
2023/01/16 09:39:32;;;;;;;2.35;2.15;;;;;;;23.01;40.84;97427.91;1839597;76;28414;-48
2023/01/16 09:45:46;;;;;;;2.80;2.30;;;;;;;23.01;40.78;97410.69;1838786;76;28032;-52
2023/01/16 09:48:36;;;;;;;2.02;1.85;;;;;;;22.91;40.83;97419.80;1836402;76;28456;-51
2023/01/16 09:51:30;;;;;;;2.27;1.90;;;;;;;22.93;40.92;97403.91;1840595;77;28417;-50
2023/01/16 10:00:40;;;;;;;2.00;1.85;;;;;;;22.91;40.84;97410.22;1825655;77;28282;-49
2023/01/16 10:03:28;;;;;;;1.98;1.87;;;;;;;22.91;40.78;97412.95;1807372;79;28336;-50
2023/01/16 10:06:31;;;;;;;1.93;1.77;;;;;;;22.96;40.77;97403.88;1815609;77;28228;-52
2023/01/16 10:09:31;;;;;;;2.02;1.90;;;;;;;22.95;40.79;97398.95;1817467;77;28325;-48
2023/01/16 10:12:21;;;;;;;2.00;1.90;;;;;;;22.94;40.72;97401.98;1817156;77;28407;-53
2023/01/16 10:15:19;;;;;;;2.00;1.90;;;;;;;22.92;40.66;97403.63;1819552;77;28340;-48
2023/01/16 10:18:23;;;;;;;1.87;1.77;;;;;;;22.92;40.71;97380.93;1765697;80;29317;-48
2023/01/16 10:21:43;;;;;;;1.77;1.67;;;;;;;22.91;40.66;97377.37;1819039;77;28346;-49
2023/01/16 10:24:54;;;;;;;1.80;1.70;;;;;;;22.91;40.64;97371.89;1820328;77;28653;-55
2023/01/16 10:28:00;;;;;;;2.45;1.75;;;;;;;22.85;40.72;97368.91;1819505;77;28236;-50
2023/01/16 10:30:54;;;;;;;1.70;1.60;;;;;;;22.83;40.72;97362.92;1817418;77;28239;-51
2023/01/16 10:34:00;;;;;;;1.90;1.80;;;;;;;22.84;40.69;97352.79;1831989;77;28515;-48
2023/01/16 10:36:47;;;;;;;1.90;1.62;;;;;;;22.88;40.67;97348.37;1827483;77;28303;-54
2023/01/16 10:39:38;;;;;;;1.70;1.60;;;;;;;22.87;40.64;97348.91;1783745;79;28433;-50
2023/01/16 10:51:44;;;;;;;1.80;1.70;;;;;;;22.92;40.54;97327.55;1817204;77;28295;-49
2023/01/16 10:54:40;;;;;;;1.60;1.50;;;;;;;22.91;40.50;97325.35;1817566;77;28753;-50
2023/01/16 10:57:29;;;;;;;1.60;1.50;;;;;;;22.92;40.42;97323.44;1818418;77;28306;-53
2023/01/16 11:00:28;;;;;;;1.80;1.70;;;;;;;22.93;40.38;97314.92;1765691;80;28424;-50
2023/01/16 11:03:19;;;;;;;1.70;1.60;;;;;;;22.94;40.35;97310.27;1817544;77;28304;-50
2023/01/16 11:06:26;;;;;;;1.90;1.40;;;;;;;22.95;40.32;97299.56;1837613;77;28282;-51
2023/01/16 11:09:18;;;;;;;1.40;1.40;;;;;;;22.96;40.30;97300.66;1817456;77;28303;-53
2023/01/16 11:18:34;;;;;;;1.55;1.45;;;;;;;22.91;40.29;97261.02;1825651;77;28327;-49
2023/01/16 11:21:31;;;;;;;1.62;1.50;;;;;;;22.90;40.41;97255.81;1836420;76;28137;-52
2023/01/16 11:24:22;;;;;;;1.50;1.40;;;;;;;22.92;40.28;97264.58;1818031;76;28229;-47
2023/01/16 11:27:14;;;;;;;1.47;1.40;;;;;;;22.90;40.26;97262.11;1817331;77;28231;-50
2023/01/16 11:30:05;;;;;;;2.90;1.50;;;;;;;22.94;40.21;97252.78;1858784;76;28099;-50
2023/01/16 11:32:56;;;;;;;1.50;1.40;;;;;;;22.95;40.15;97248.38;1837894;77;28713;-47
2023/01/16 11:35:59;;;;;;;1.25;1.25;;;;;;;22.94;40.13;97235.77;1825546;77;28314;-51
2023/01/16 11:38:49;;;;;;;1.30;1.30;;;;;;;22.94;40.09;97249.46;1848044;77;28347;-49
2023/01/16 11:41:39;;;;;;;1.35;1.30;;;;;;;22.91;40.11;97228.16;1866772;76;28125;-51
2023/01/16 11:47:46;;;;;;;1.57;1.40;;;;;;;22.95;40.09;97220.99;1857359;76;28334;-48
2023/01/16 11:50:37;;;;;;;1.30;1.20;;;;;;;22.87;40.10;97212.03;1857259;77;28180;-51
2023/01/16 11:53:34;;;;;;;1.60;1.30;;;;;;;22.90;40.04;97216.94;1868908;76;28246;-48
2023/01/16 11:56:34;;;;;;;1.47;1.37;;;;;;;22.95;39.99;97215.52;1889675;75;28095;-52
2023/01/16 11:59:45;;;;;;;1.30;1.30;;;;;;;22.95;39.98;97208.67;1859818;76;28325;-48
2023/01/16 12:03:13;;;;;;;1.30;1.20;;;;;;;22.94;40.01;97204.29;1864812;76;28099;-49
2023/01/16 12:06:16;;;;;;;1.47;1.37;;;;;;;22.90;40.02;97196.41;1839359;76;28295;-50
2023/01/16 12:09:26;;;;;;;1.20;1.10;;;;;;;22.87;40.07;97184.66;1863021;76;28447;-48
2023/01/16 12:15:49;;;;;;;1.47;1.37;;;;;;;22.85;40.07;97171.03;1878097;75;28098;-52
2023/01/16 12:18:43;;;;;;;1.98;1.30;;;;;;;22.82;40.11;97175.72;1882574;75;31188;-50
2023/01/16 12:21:44;;;;;;;1.32;1.20;;;;;;;22.83;40.08;97174.59;1840771;77;28516;-49
2023/01/16 12:25:03;;;;;;;1.20;1.20;;;;;;;22.85;40.02;97169.09;1862046;75;28204;-52
2023/01/16 12:28:10;;;;;;;1.30;1.20;;;;;;;22.88;40.02;97164.41;1868487;75;28247;-48
2023/01/16 12:31:29;;;;;;;1.20;1.20;;;;;;;22.87;39.99;97166.08;1849963;76;28215;-49
2023/01/16 12:34:40;;;;;;;1.40;1.30;;;;;;;22.85;39.95;97149.92;1837244;77;28497;-49
2023/01/16 12:37:37;;;;;;;1.20;1.10;;;;;;;22.85;39.95;97138.19;1850517;76;28399;-53
2023/01/16 12:40:32;;;;;;;1.37;1.27;;;;;;;22.85;39.94;97128.61;1868984;76;28277;-49
2023/01/16 12:43:35;;;;;;;1.30;1.20;;;;;;;22.85;39.96;97126.66;1884736;75;28355;-48
2023/01/16 12:46:31;;;;;;;1.20;1.20;;;;;;;22.88;39.84;97131.56;1883844;75;28106;-53
2023/01/16 12:49:34;;;;;;;1.07;1.07;;;;;;;22.88;39.85;97137.03;1866548;76;28223;-50
2023/01/16 12:52:46;;;;;;;1.00;1.00;;;;;;;22.87;39.81;97136.76;1869028;75;28104;-51
2023/01/16 12:55:50;;;;;;;1.15;1.10;;;;;;;22.86;39.91;97118.72;1855046;76;28265;-48
2023/01/16 12:58:48;;;;;;;1.00;1.00;;;;;;;22.85;39.80;97121.77;1852273;76;28201;-50
2023/01/16 13:01:39;;;;;;;1.20;1.20;;;;;;;22.85;39.82;97118.45;1848287;76;28279;-47
2023/01/16 13:04:36;;;;;;;1.12;1.12;;;;;;;22.84;39.79;97114.09;1884210;75;28269;-50
2023/01/16 13:07:27;;;;;;;1.22;1.12;;;;;;;22.86;39.79;97103.66;1886057;75;28218;-51
2023/01/16 13:13:30;;;;;;;1.00;1.00;;;;;;;22.91;39.68;97098.67;1869226;75;28087;-50
2023/01/16 13:16:22;;;;;;;1.02;1.02;;;;;;;22.86;39.69;97091.34;1850436;76;33193;-50
2023/01/16 13:19:19;;;;;;;1.30;1.17;;;;;;;22.86;39.74;97083.14;1858088;76;28244;-48
2023/01/16 13:22:28;;;;;;;0.90;0.90;;;;;;;22.88;39.67;97097.34;1878585;75;28102;-51
2023/01/16 13:25:22;;;;;;;0.80;0.80;;;;;;;22.86;39.61;97083.69;1891899;75;28062;-50
2023/01/16 13:28:32;;;;;;;0.93;0.93;;;;;;;22.85;39.65;97089.70;1878494;75;28173;-51
2023/01/16 13:31:27;;;;;;;1.10;1.10;;;;;;;22.87;39.61;97089.43;1852231;76;28249;-52
2023/01/16 13:34:40;;;;;;;1.20;1.20;;;;;;;22.84;39.58;97083.98;1850632;76;28208;-50
2023/01/16 13:37:44;;;;;;;1.10;1.10;;;;;;;22.85;39.60;97090.28;1848671;76;28267;-49
2023/01/16 13:40:56;;;;;;;0.90;0.90;;;;;;;22.82;39.60;97086.20;1854439;75;28094;-49
2023/01/16 13:47:20;;;;;;;1.10;1.10;;;;;;;22.81;39.59;97076.36;1882110;75;28206;-51
2023/01/16 13:50:27;;;;;;;1.05;1.05;;;;;;;22.75;39.66;97091.78;1888302;75;28156;-48
2023/01/16 13:53:17;;;;;;;0.90;0.90;;;;;;;22.78;39.59;97082.41;1876330;75;28114;-49
2023/01/16 13:56:17;;;;;;;1.10;1.10;;;;;;;22.81;39.54;97096.88;1889020;75;28103;-49
2023/01/16 13:59:11;;;;;;;1.00;1.00;;;;;;;22.82;39.50;97098.53;1882064;75;28153;-50
2023/01/16 14:01:59;;;;;;;1.02;0.85;;;;;;;22.83;39.46;97081.52;1880699;75;28218;-49
2023/01/16 14:05:06;;;;;;;0.98;0.93;;;;;;;22.82;39.39;97064.86;1883274;75;31166;-48
2023/01/16 14:11:36;;;;;;;0.80;0.80;;;;;;;22.84;39.35;97097.67;1883413;75;28246;-50
2023/01/16 14:16:30;;;;;;;0.90;0.90;;;;;;;22.77;39.39;97072.59;1857061;76;28223;-48
2023/01/16 14:17:32;;;;;;;1.00;1.00;;;;;;;22.77;39.37;97093.11;1847534;77;28268;-49
2023/01/16 14:20:38;;;;;;;0.88;0.88;;;;;;;22.75;39.37;97078.91;1833297;77;28351;-54
2023/01/16 14:26:42;;;;;;;0.88;0.88;;;;;;;22.77;39.35;97086.27;1877226;75;28202;-51
2023/01/16 14:29:40;;;;;;;0.80;0.80;;;;;;;22.77;39.32;97086.27;1862704;76;28184;-50
2023/01/16 14:32:31;;;;;;;0.80;0.80;;;;;;;22.79;39.21;97091.44;1848327;76;28090;-49
2023/01/16 14:35:24;;;;;;;0.80;0.80;;;;;;;22.76;39.24;97082.44;1869199;76;28136;-52
2023/01/16 14:38:16;;;;;;;1.00;0.90;;;;;;;22.80;39.23;97073.92;1866602;76;28287;-52
2023/01/16 14:57:15;;;;;;;0.75;0.75;;;;;;;22.72;39.21;97091.80;1804501;78;28319;-48
2023/01/16 15:00:09;;;;;;;0.72;0.72;;;;;;;22.67;39.28;97089.13;1793576;78;28212;-51
2023/01/16 15:03:03;;;;;;;0.80;0.80;;;;;;;22.69;39.30;97084.17;1834235;77;28265;-50
2023/01/16 15:05:54;;;;;;;0.80;0.80;;;;;;;22.72;39.20;97091.80;1834616;77;28254;-48